createdAt,value
2023-11-24T00:00:55.118Z,0.90
2023-11-24T00:03:23.098Z,0.95
2023-11-24T00:05:51.062Z,1.00
2023-11-24T00:08:18.902Z,1.00
2023-11-24T00:10:48.623Z,1.00
2023-11-24T00:13:17.702Z,1.10
2023-11-24T00:15:46.542Z,1.20
2023-11-24T00:18:14.877Z,1.70
2023-11-24T00:20:42.814Z,0.90
2023-11-24T00:23:10.682Z,1.00
2023-11-24T00:25:38.858Z,1.48
2023-11-24T00:28:08.076Z,1.20
2023-11-24T00:30:36.207Z,1.30
2023-11-24T00:33:04.242Z,1.05
2023-11-24T00:35:32.322Z,1.05
2023-11-24T00:38:00.269Z,1.08
2023-11-24T00:40:28.069Z,1.35
2023-11-24T00:42:56.314Z,1.00
2023-11-24T00:45:26.693Z,1.23
2023-11-24T00:47:55.561Z,1.27
2023-11-24T00:50:23.637Z,1.40
2023-11-24T00:52:51.550Z,1.00
2023-11-24T00:55:19.757Z,0.90
2023-11-24T00:57:47.673Z,0.98
2023-11-24T01:00:16.727Z,1.05
2023-11-24T01:02:46.009Z,1.52
2023-11-24T01:05:13.985Z,1.02
2023-11-24T01:07:42.277Z,0.90
2023-11-24T01:10:10.909Z,0.80
2023-11-24T01:12:39.618Z,1.00
2023-11-24T01:15:09.647Z,0.73
2023-11-24T01:20:10.814Z,0.90
2023-11-24T01:22:38.984Z,1.17
2023-11-24T01:25:08.887Z,1.25
2023-11-24T01:27:36.912Z,1.08
2023-11-24T01:30:05.406Z,1.30
2023-11-24T01:32:33.296Z,0.80
2023-11-24T01:35:01.171Z,0.88
2023-11-24T01:37:30.425Z,1.00
2023-11-24T01:39:58.392Z,0.90
2023-11-24T01:42:26.747Z,0.80
2023-11-24T01:44:54.756Z,0.90
2023-11-24T01:47:23.215Z,0.80
2023-11-24T01:49:51.343Z,1.10
2023-11-24T01:52:20.797Z,0.50
2023-11-24T01:54:50.289Z,0.57
2023-11-24T01:57:18.455Z,0.93
2023-11-24T01:59:46.369Z,0.80
2023-11-24T02:02:16.364Z,0.82
2023-11-24T02:07:12.589Z,0.63
2023-11-24T02:09:41.042Z,0.65
2023-11-24T02:12:10.672Z,0.95
2023-11-24T02:14:38.817Z,0.80
2023-11-24T02:17:06.751Z,0.93
2023-11-24T02:19:34.724Z,0.75
2023-11-24T02:22:02.668Z,0.63
2023-11-24T02:24:32.156Z,0.80
2023-11-24T02:27:00.865Z,0.73
2023-11-24T02:29:29.132Z,0.75
2023-11-24T02:31:56.960Z,0.60
2023-11-24T02:34:24.862Z,0.60
2023-11-24T02:36:52.901Z,0.82
2023-11-24T02:39:20.713Z,0.60
2023-11-24T02:41:49.991Z,0.60
2023-11-24T02:44:17.922Z,0.73
2023-11-24T02:46:46.296Z,0.80
2023-11-24T02:49:14.193Z,0.70
2023-11-24T02:51:42.157Z,0.77
2023-11-24T02:54:10.019Z,0.63
2023-11-24T02:56:38.616Z,0.80
2023-11-24T02:59:07.869Z,0.80
2023-11-24T03:01:36.051Z,0.80
2023-11-24T03:04:04.075Z,0.68
2023-11-24T03:06:32.104Z,0.60
2023-11-24T03:09:01.916Z,0.65
2023-11-24T03:11:31.393Z,0.60
2023-11-24T03:13:59.370Z,0.80
2023-11-24T03:16:28.571Z,0.70
2023-11-24T03:18:56.780Z,0.60
2023-11-24T03:21:24.788Z,0.73
2023-11-24T03:23:52.726Z,0.70
2023-11-24T03:26:20.588Z,0.50
2023-11-24T03:28:48.433Z,0.65
2023-11-24T03:31:16.408Z,0.75
2023-11-24T03:33:45.666Z,0.60
2023-11-24T03:36:13.524Z,0.60
2023-11-24T03:38:41.414Z,0.57
2023-11-24T03:41:09.299Z,0.60
2023-11-24T03:43:37.177Z,0.73
2023-11-24T03:46:06.166Z,0.65
2023-11-24T03:48:34.137Z,0.80
2023-11-24T03:51:03.559Z,0.75
2023-11-24T03:53:31.423Z,0.80
2023-11-24T03:55:59.547Z,0.70
2023-11-24T03:58:27.981Z,0.50
2023-11-24T04:00:55.870Z,0.70
2023-11-24T04:03:23.744Z,0.68
2023-11-24T04:05:51.582Z,0.50
2023-11-24T04:08:21.034Z,0.93
2023-11-24T04:10:48.876Z,0.60
2023-11-24T04:13:17.013Z,0.50
2023-11-24T04:15:45.065Z,0.60
2023-11-24T04:18:13.193Z,0.60
2023-11-24T04:20:41.019Z,0.70
2023-11-24T04:23:09.285Z,0.50
2023-11-24T04:25:38.528Z,0.60
2023-11-24T04:28:06.659Z,0.60
2023-11-24T04:30:34.764Z,0.50
2023-11-24T04:33:03.361Z,0.90
2023-11-24T04:35:31.324Z,0.70
2023-11-24T04:37:59.184Z,0.50
2023-11-24T04:40:27.264Z,0.60
2023-11-24T04:42:56.729Z,0.60
2023-11-24T04:45:24.585Z,0.57
2023-11-24T04:47:52.689Z,0.73
2023-11-24T04:50:20.649Z,0.52
2023-11-24T04:52:48.500Z,0.60
2023-11-24T04:55:16.634Z,0.40
2023-11-24T04:57:50.397Z,0.40
2023-11-24T05:00:20.785Z,0.68
2023-11-24T05:02:50.476Z,0.70
2023-11-24T05:05:18.977Z,0.40
2023-11-24T05:07:46.865Z,0.75
2023-11-24T05:10:14.752Z,0.50
2023-11-24T05:12:42.738Z,0.85
2023-11-24T05:15:11.164Z,0.50
2023-11-24T05:17:40.706Z,0.80
2023-11-24T05:20:09.675Z,1.10
2023-11-24T05:22:37.775Z,1.08
2023-11-24T05:25:06.570Z,1.40
2023-11-24T05:27:34.490Z,1.23
2023-11-24T05:30:03.624Z,1.40
2023-11-24T05:32:31.770Z,1.20
2023-11-24T05:35:01.040Z,1.10
2023-11-24T05:37:29.108Z,1.20
2023-11-24T05:39:57.157Z,0.88
2023-11-24T05:42:25.060Z,0.80
2023-11-24T05:44:53.115Z,1.23
2023-11-24T05:47:21.521Z,0.88
2023-11-24T05:49:51.911Z,0.77
2023-11-24T05:52:21.457Z,0.82
2023-11-24T05:54:49.822Z,1.13
2023-11-24T05:57:17.726Z,1.10
2023-11-24T05:59:45.565Z,0.95
2023-11-24T06:02:14.371Z,1.08
2023-11-24T06:04:42.306Z,0.80
2023-11-24T06:07:10.411Z,0.90
2023-11-24T06:09:39.705Z,1.08
2023-11-24T06:12:08.590Z,1.23
2023-11-24T06:14:36.447Z,1.02
2023-11-24T06:17:04.323Z,1.45
2023-11-24T06:19:32.401Z,1.13
2023-11-24T06:22:00.871Z,1.45
2023-11-24T06:24:28.827Z,1.25
2023-11-24T06:26:58.248Z,1.15
2023-11-24T06:29:26.574Z,1.45
2023-11-24T06:31:54.429Z,1.35
2023-11-24T06:34:22.962Z,1.13
2023-11-24T06:36:51.380Z,1.15
2023-11-24T06:39:21.186Z,1.23
2023-11-24T06:41:49.171Z,1.15
2023-11-24T06:44:18.345Z,1.00
2023-11-24T06:46:46.328Z,0.90
2023-11-24T06:49:14.213Z,1.00
2023-11-24T06:51:42.322Z,1.05
2023-11-24T06:54:10.187Z,1.02
2023-11-24T06:56:38.008Z,1.00
2023-11-24T06:59:05.902Z,1.30
2023-11-24T07:01:36.474Z,1.35
2023-11-24T07:04:05.118Z,1.33
2023-11-24T07:06:33.179Z,0.50
2023-11-24T07:09:00.999Z,0.70
2023-11-24T07:11:28.867Z,0.75
2023-11-24T07:13:56.915Z,0.90
2023-11-24T07:16:25.009Z,0.70
2023-11-24T07:18:54.725Z,0.88
2023-11-24T07:21:22.804Z,0.80
2023-11-24T07:23:50.650Z,0.60
2023-11-24T07:26:18.909Z,0.93
2023-11-24T07:28:46.857Z,0.93
2023-11-24T07:31:16.408Z,1.40
2023-11-24T07:33:44.726Z,1.13
2023-11-24T07:36:13.943Z,0.68
2023-11-24T07:38:41.820Z,0.83
2023-11-24T07:41:10.614Z,0.70
2023-11-24T07:43:38.749Z,0.80
2023-11-24T07:46:08.574Z,0.70
2023-11-24T07:48:36.548Z,0.73
2023-11-24T07:51:06.596Z,0.60
2023-11-24T07:56:05.099Z,1.08
2023-11-24T07:58:33.289Z,0.60
2023-11-24T08:01:04.119Z,0.60
2023-11-24T08:03:34.127Z,0.50
2023-11-24T08:06:07.508Z,0.60
2023-11-24T08:08:37.201Z,0.63
2023-11-24T08:11:05.896Z,0.70
2023-11-24T08:13:33.781Z,0.85
2023-11-24T08:16:02.138Z,0.60
2023-11-24T08:18:30.066Z,1.02
2023-11-24T08:20:59.712Z,0.88
2023-11-24T08:23:28.625Z,0.70
2023-11-24T08:25:57.837Z,0.70
2023-11-24T08:28:25.671Z,0.80
2023-11-24T08:30:56.223Z,0.60
2023-11-24T08:33:24.328Z,0.60
2023-11-24T08:35:52.148Z,1.25
2023-11-24T08:38:19.995Z,0.73
2023-11-24T08:40:47.817Z,0.50
2023-11-24T08:43:17.439Z,0.50
2023-11-24T08:45:45.444Z,0.57
2023-11-24T08:48:13.513Z,0.63
2023-11-24T08:50:41.381Z,0.63
2023-11-24T08:53:09.246Z,0.47
2023-11-24T08:55:37.151Z,0.60
2023-11-24T08:58:06.016Z,0.60
2023-11-24T09:00:36.302Z,0.75
2023-11-24T09:03:06.282Z,0.47
2023-11-24T09:08:02.236Z,0.68
2023-11-24T09:10:30.365Z,0.52
2023-11-24T09:12:58.800Z,0.52
2023-11-24T09:15:26.883Z,0.70
2023-11-24T09:17:57.663Z,0.70
2023-11-24T09:20:26.440Z,0.75
2023-11-24T09:22:54.636Z,0.50
2023-11-24T09:25:22.848Z,0.50
2023-11-24T09:27:50.798Z,0.68
2023-11-24T09:30:18.988Z,0.40
2023-11-24T09:32:48.792Z,0.63
2023-11-24T09:35:18.160Z,0.60
2023-11-24T09:37:46.110Z,0.60
2023-11-24T09:40:17.318Z,0.52
2023-11-24T09:42:47.063Z,0.50
2023-11-24T09:45:18.346Z,0.43
2023-11-24T09:47:50.283Z,0.45
2023-11-24T09:50:24.526Z,0.43
2023-11-24T09:52:53.439Z,0.40
2023-11-24T09:55:23.820Z,0.63
2023-11-24T09:57:52.858Z,0.30
2023-11-24T10:00:21.724Z,0.60
2023-11-24T10:02:49.965Z,0.40
2023-11-24T10:05:20.867Z,0.30
2023-11-24T10:07:51.839Z,0.50
2023-11-24T10:10:24.792Z,0.50
2023-11-24T10:12:54.961Z,0.40
2023-11-24T10:15:23.948Z,0.60
2023-11-24T10:17:52.215Z,0.45
2023-11-24T10:20:23.708Z,0.50
2023-11-24T10:22:52.435Z,0.93
2023-11-24T10:25:22.075Z,0.63
2023-11-24T10:27:50.880Z,0.35
2023-11-24T10:30:20.033Z,0.38
2023-11-24T10:32:49.774Z,0.75
2023-11-24T10:35:17.954Z,0.60
2023-11-24T10:37:49.453Z,0.57
2023-11-24T10:40:21.793Z,0.40
2023-11-24T10:42:51.783Z,0.40
2023-11-24T10:45:21.169Z,0.50
2023-11-24T10:48:03.277Z,0.28
2023-11-24T10:50:33.735Z,0.30
2023-11-24T10:53:09.075Z,0.38
2023-11-24T10:55:38.960Z,0.85
2023-11-24T11:00:37.923Z,0.30
2023-11-24T11:03:07.619Z,0.32
2023-11-24T11:05:51.249Z,0.30
2023-11-24T11:08:30.099Z,0.60
2023-11-24T11:11:22.313Z,0.40
2023-11-24T11:13:53.096Z,0.38
2023-11-24T11:16:21.990Z,0.50
2023-11-24T11:18:50.835Z,0.47
2023-11-24T11:21:37.415Z,0.85
2023-11-24T11:24:09.706Z,0.80
2023-11-24T11:26:49.101Z,0.70
2023-11-24T11:29:17.371Z,0.40
2023-11-24T11:31:48.005Z,0.57
2023-11-24T11:34:18.363Z,0.60
2023-11-24T11:37:06.576Z,0.73
2023-11-24T11:39:48.634Z,0.60
2023-11-24T11:42:17.530Z,0.70
2023-11-24T11:44:48.496Z,0.57
2023-11-24T11:47:21.371Z,0.60
2023-11-24T11:49:55.189Z,0.65
2023-11-24T11:52:28.271Z,0.50
2023-11-24T11:54:59.458Z,0.50
2023-11-24T11:57:29.116Z,0.40
2023-11-24T11:59:57.305Z,0.40
2023-11-24T12:02:25.617Z,0.45
2023-11-24T12:04:53.758Z,1.05
2023-11-24T12:07:23.609Z,0.70
2023-11-24T12:12:23.759Z,0.80
2023-11-24T12:14:55.357Z,0.80
2023-11-24T12:17:24.841Z,0.90
2023-11-24T12:19:53.394Z,1.05
2023-11-24T12:22:22.403Z,1.40
2023-11-24T12:24:51.883Z,1.53
2023-11-24T12:27:22.127Z,1.40
2023-11-24T12:29:52.357Z,1.15
2023-11-24T12:32:23.565Z,1.17
2023-11-24T12:34:52.575Z,1.77
2023-11-24T12:37:20.514Z,1.20
2023-11-24T12:39:48.605Z,1.00
2023-11-24T12:42:18.945Z,0.80
2023-11-24T12:44:51.270Z,0.93
2023-11-24T12:47:41.651Z,0.88
2023-11-24T12:50:13.849Z,0.95
2023-11-24T12:52:45.211Z,1.00
2023-11-24T12:55:13.876Z,0.80
2023-11-24T12:57:43.990Z,1.00
2023-11-24T13:00:17.432Z,0.63
2023-11-24T13:02:46.887Z,0.98
2023-11-24T13:05:17.321Z,0.70
2023-11-24T13:07:45.895Z,0.70
2023-11-24T13:10:14.024Z,0.90
2023-11-24T13:12:43.201Z,0.82
2023-11-24T13:15:13.995Z,1.05
2023-11-24T13:17:41.994Z,0.70
2023-11-24T13:20:12.610Z,0.80
2023-11-24T13:22:40.853Z,0.90
2023-11-24T13:25:10.410Z,0.70
2023-11-24T13:27:38.583Z,1.10
2023-11-24T13:30:10.650Z,0.60
2023-11-24T13:32:41.525Z,0.50
2023-11-24T13:35:11.784Z,0.60
2023-11-24T13:37:40.274Z,0.60
2023-11-24T13:40:10.487Z,0.82
2023-11-24T13:42:38.654Z,1.20
2023-11-24T13:45:08.435Z,0.77
2023-11-24T13:47:36.957Z,0.50
2023-11-24T13:50:08.692Z,0.52
2023-11-24T13:52:36.580Z,1.13
2023-11-24T13:55:07.497Z,0.80
2023-11-24T13:57:36.805Z,0.80
2023-11-24T14:00:08.215Z,0.88
2023-11-24T14:02:37.286Z,0.70
2023-11-24T14:05:09.861Z,0.73
2023-11-24T14:07:37.796Z,1.10
2023-11-24T14:10:07.402Z,0.90
2023-11-24T14:12:36.300Z,0.68
2023-11-24T14:15:05.806Z,0.70
2023-11-24T14:17:36.995Z,0.82
2023-11-24T14:20:08.221Z,0.68
2023-11-24T14:22:37.454Z,0.57
2023-11-24T14:25:07.862Z,1.00
2023-11-24T14:27:36.203Z,0.52
2023-11-24T14:30:06.571Z,1.00
2023-11-24T14:32:34.647Z,0.95
2023-11-24T14:35:02.599Z,0.70
2023-11-24T14:37:31.841Z,0.52
2023-11-24T14:40:01.435Z,0.83
2023-11-24T14:42:29.846Z,0.85
2023-11-24T14:44:57.721Z,0.77
2023-11-24T14:47:27.899Z,0.50
2023-11-24T14:49:55.791Z,0.65
2023-11-24T14:52:24.599Z,0.80
2023-11-24T14:54:56.488Z,0.90
2023-11-24T14:57:24.448Z,0.75
2023-11-24T14:59:55.890Z,0.57
2023-11-24T15:02:26.808Z,0.65
2023-11-24T15:04:54.966Z,0.75
2023-11-24T15:07:24.645Z,0.57
2023-11-24T15:09:53.930Z,0.50
2023-11-24T15:12:27.709Z,0.77
2023-11-24T15:14:56.488Z,0.50
2023-11-24T15:17:27.405Z,0.60
2023-11-24T15:19:55.250Z,0.77
2023-11-24T15:22:28.050Z,0.50
2023-11-24T15:24:59.568Z,0.68
2023-11-24T15:27:28.572Z,0.88
2023-11-24T15:29:56.451Z,0.70
2023-11-24T15:32:24.914Z,0.70
2023-11-24T15:34:54.225Z,0.80
2023-11-24T15:37:23.279Z,0.77
2023-11-24T15:39:57.719Z,1.00
2023-11-24T15:42:32.654Z,0.60
2023-11-24T15:45:01.578Z,1.00
2023-11-24T15:47:30.260Z,0.82
2023-11-24T15:50:00.059Z,1.60
2023-11-24T15:52:28.404Z,1.33
2023-11-24T15:54:56.666Z,1.60
2023-11-24T15:57:24.586Z,1.35
2023-11-24T15:59:57.680Z,1.20
2023-11-24T16:02:30.976Z,1.58
2023-11-24T16:04:59.253Z,1.42
2023-11-24T16:07:33.474Z,1.02
2023-11-24T16:10:11.455Z,1.30
2023-11-24T16:12:39.616Z,1.20
2023-11-24T16:15:16.924Z,1.08
2023-11-24T16:17:46.770Z,1.30
2023-11-24T16:22:42.826Z,1.15
2023-11-24T16:25:11.323Z,1.15
2023-11-24T16:27:42.174Z,1.27
2023-11-24T16:30:12.020Z,0.70
2023-11-24T16:32:40.498Z,1.25
2023-11-24T16:35:10.082Z,1.10
2023-11-24T16:37:38.542Z,0.98
2023-11-24T16:40:09.836Z,1.48
2023-11-24T16:42:37.944Z,1.30
2023-11-24T16:45:07.516Z,1.40
2023-11-24T16:47:37.615Z,1.27
2023-11-24T16:50:08.884Z,1.20
2023-11-24T16:52:39.464Z,1.30
2023-11-24T16:55:09.207Z,1.55
2023-11-24T16:57:37.608Z,0.93
2023-11-24T17:00:07.488Z,1.00
2023-11-24T17:05:04.848Z,1.00
2023-11-24T17:07:32.672Z,0.82
2023-11-24T17:10:00.662Z,0.70
2023-11-24T17:12:31.020Z,1.00
2023-11-24T17:14:59.132Z,0.90
2023-11-24T17:17:27.080Z,0.85
2023-11-24T17:19:56.454Z,0.75
2023-11-24T17:22:24.424Z,0.70
2023-11-24T17:24:52.726Z,1.67
2023-11-24T17:27:20.738Z,1.42
2023-11-24T17:29:48.692Z,1.15
2023-11-24T17:32:16.549Z,1.00
2023-11-24T17:34:44.493Z,0.93
2023-11-24T17:37:13.871Z,0.88
2023-11-24T17:39:42.735Z,0.90
2023-11-24T17:42:10.734Z,1.08
2023-11-24T17:44:39.010Z,0.73
2023-11-24T17:47:08.652Z,1.15
2023-11-24T17:49:37.383Z,1.20
2023-11-24T17:52:05.835Z,0.80
2023-11-24T17:54:35.467Z,0.90
2023-11-24T17:57:03.513Z,0.80
2023-11-24T17:59:31.351Z,0.75
2023-11-24T18:02:01.103Z,1.10
2023-11-24T18:04:29.460Z,1.00
2023-11-24T18:06:57.360Z,0.90
2023-11-24T18:09:25.845Z,0.80
2023-11-24T18:11:55.899Z,0.80
2023-11-24T18:14:23.879Z,0.80
2023-11-24T18:16:51.782Z,0.82
2023-11-24T18:19:19.705Z,0.90
2023-11-24T18:21:47.554Z,1.00
2023-11-24T18:24:17.224Z,1.13
2023-11-24T18:26:45.333Z,0.95
2023-11-24T18:29:15.295Z,1.10
2023-11-24T18:34:12.594Z,1.15
2023-11-24T18:36:42.186Z,1.60
2023-11-24T18:39:13.333Z,1.33
2023-11-24T18:41:41.175Z,1.45
2023-11-24T18:44:09.111Z,1.80
2023-11-24T18:46:38.333Z,1.23
2023-11-24T18:49:06.416Z,1.13
2023-11-24T18:51:34.331Z,1.60
2023-11-24T18:54:02.429Z,1.55
2023-11-24T18:56:30.272Z,1.20
2023-11-24T18:58:58.107Z,1.00
2023-11-24T19:01:25.990Z,1.10
2023-11-24T19:03:55.265Z,1.38
2023-11-24T19:06:23.290Z,1.10
2023-11-24T19:08:51.967Z,1.45
2023-11-24T19:11:21.908Z,1.25
2023-11-24T19:16:17.989Z,1.55
2023-11-24T19:18:45.954Z,1.10
2023-11-24T19:21:15.597Z,1.02
2023-11-24T19:23:43.570Z,1.13
2023-11-24T19:26:13.553Z,1.20
2023-11-24T19:31:09.857Z,1.40
2023-11-24T19:33:37.769Z,0.90
2023-11-24T19:36:06.547Z,1.05
2023-11-24T19:38:35.950Z,1.30
2023-11-24T19:41:03.882Z,1.02
2023-11-24T19:43:31.901Z,1.25
2023-11-24T19:45:59.858Z,0.88
2023-11-24T19:48:30.788Z,1.25
2023-11-24T19:50:58.950Z,0.77
2023-11-24T19:53:26.927Z,0.80
2023-11-24T19:55:56.377Z,0.80
2023-11-24T19:58:24.256Z,0.70
2023-11-24T20:00:52.357Z,0.98
2023-11-24T20:03:20.638Z,0.63
2023-11-24T20:05:48.860Z,0.80
2023-11-24T20:08:16.946Z,0.73
2023-11-24T20:10:44.787Z,0.63
2023-11-24T20:13:14.254Z,0.63
2023-11-24T20:15:44.047Z,0.50
2023-11-24T20:18:12.112Z,0.90
2023-11-24T20:20:40.452Z,0.60
2023-11-24T20:23:09.285Z,0.95
2023-11-24T20:25:37.984Z,0.70
2023-11-24T20:28:08.828Z,0.60
2023-11-24T20:30:38.034Z,0.70
2023-11-24T20:33:06.455Z,0.73
2023-11-24T20:35:34.292Z,0.60
2023-11-24T20:38:02.432Z,0.50
2023-11-24T20:40:30.353Z,0.50
2023-11-24T20:42:58.249Z,0.50
2023-11-24T20:45:26.153Z,0.70
2023-11-24T20:47:56.420Z,0.50
2023-11-24T20:50:24.922Z,0.50
2023-11-24T20:52:52.823Z,1.15
2023-11-24T20:55:20.829Z,0.40
2023-11-24T20:57:48.738Z,0.50
2023-11-24T21:00:19.527Z,0.65
2023-11-24T21:02:47.514Z,0.60
2023-11-24T21:05:16.896Z,0.40
2023-11-24T21:07:44.727Z,0.50
2023-11-24T21:10:13.541Z,0.98
2023-11-24T21:12:42.909Z,0.65
2023-11-24T21:15:12.179Z,0.50
2023-11-24T21:17:40.459Z,0.40
2023-11-24T21:20:10.743Z,0.60
2023-11-24T21:22:48.957Z,0.50
2023-11-24T21:25:17.749Z,0.43
2023-11-24T21:27:45.601Z,0.50
2023-11-24T21:30:14.608Z,0.40
2023-11-24T21:32:42.749Z,0.50
2023-11-24T21:35:10.756Z,0.57
2023-11-24T21:37:40.053Z,0.52
2023-11-24T21:40:12.201Z,0.57
2023-11-24T21:42:41.639Z,0.60
2023-11-24T21:45:11.013Z,0.68
2023-11-24T21:47:39.029Z,0.52
2023-11-24T21:50:08.017Z,0.50
2023-11-24T21:52:36.732Z,0.50
2023-11-24T21:55:07.695Z,0.50
2023-11-24T21:57:35.616Z,0.60
2023-11-24T22:00:06.167Z,0.43
2023-11-24T22:02:39.321Z,0.52
2023-11-24T22:05:10.189Z,0.32
2023-11-24T22:07:38.467Z,0.73
2023-11-24T22:10:09.530Z,0.50
2023-11-24T22:12:39.450Z,1.02
2023-11-24T22:15:09.600Z,0.93
2023-11-24T22:17:38.448Z,0.90
2023-11-24T22:20:11.773Z,1.00
2023-11-24T22:22:40.516Z,0.90
2023-11-24T22:25:10.866Z,0.90
2023-11-24T22:27:38.971Z,0.70
2023-11-24T22:30:08.288Z,1.05
2023-11-24T22:32:36.823Z,0.60
2023-11-24T22:35:05.252Z,0.77
2023-11-24T22:37:34.167Z,0.93
2023-11-24T22:40:02.361Z,1.10
2023-11-24T22:42:31.605Z,1.27
2023-11-24T22:45:00.006Z,1.13
2023-11-24T22:47:28.018Z,1.13
2023-11-24T22:49:55.914Z,1.25
2023-11-24T22:52:23.818Z,1.50
2023-11-24T22:54:51.695Z,1.67
2023-11-24T22:57:19.748Z,1.50
2023-11-24T22:59:51.281Z,1.83
2023-11-24T23:02:19.582Z,1.27
2023-11-24T23:04:48.430Z,1.73
2023-11-24T23:07:19.111Z,1.85
2023-11-24T23:09:47.012Z,1.75
2023-11-24T23:12:15.188Z,2.03
2023-11-24T23:14:43.081Z,2.35
2023-11-24T23:17:13.262Z,2.15
2023-11-24T23:19:41.623Z,1.90
2023-11-24T23:22:09.862Z,2.10
2023-11-24T23:24:37.990Z,1.70
2023-11-24T23:27:07.689Z,1.73
2023-11-24T23:32:05.496Z,1.80
2023-11-24T23:34:35.064Z,2.00
2023-11-24T23:37:04.529Z,1.75
2023-11-24T23:39:35.194Z,1.75
2023-11-24T23:42:03.565Z,1.67
2023-11-24T23:44:31.450Z,2.00
2023-11-24T23:46:59.441Z,1.73
2023-11-24T23:49:27.331Z,1.88
2023-11-24T23:51:56.802Z,2.00
2023-11-24T23:54:25.030Z,1.60
2023-11-24T23:56:52.173Z,1.90
2023-11-24T23:59:20.454Z,1.98
